AirNav   Pilot Hours Calculator
 
 390 users online  

FD48 Deep Forest Airport
Jacksonville, Florida, USA

GOING TO JACKSONVILLE?


FAA INFORMATION EFFECTIVE 10 OCTOBER 2019

Location

FAA Identifier: FD48
Lat/Long: 30-14-30.8700N 081-26-59.3070W
30-14.514500N 081-26.988450W
30.2419083,-81.4498075
(estimated)
Elevation: 24 ft. / 7 m (estimated)
Variation: 03W (1985)
From city: 12 miles E of JACKSONVILLE, FL
Time zone: UTC -4 (UTC -5 during Standard Time)
Zip code: 32224

Airport Operations

Airport use: Private use. Permission required prior to landing
Activation date: 10/1985
Control tower: no
ARTCC: JACKSONVILLE CENTER
FSS: GAINESVILLE FLIGHT SERVICE STATION
Attendance: UNATNDD
Wind indicator: yes
Segmented circle: no
Lights: FOR MIRL RY 18/36 CALL 904-509-8501

Airport Communications

WX ASOS at CRG (7 nm NW): PHONE 904-646-4670
WX AWOS-3PT at SGJ (18 nm S): 119.625 (904-824-7084)
WX AWOS-3 at HEG (19 nm W): 119.275 (904-695-0334)
WX ASOS at JAX (20 nm NW): PHONE 904-741-4304

Nearby radio navigation aids

VOR radial/distance  VOR name  Freq  Var
CRGr155/6.6CRAIG VORTAC114.5003W
SGJr346/18.2ST AUGUSTINE VOR/DME109.4006W
VQQr089/(22.9)CECIL VOR117.9003W

 
NDB name  Hdg/Dist  Freq  Var  ID
REYNOLDS040/19.733807WRYD .-. -.-- -..

Airport Services

Fuel available: A1

Runway Information

Runway 18/36

Dimensions: 6425 x 60 ft. / 1958 x 18 m
Surface: asphalt
Runway edge lights: non-standard
NSTD MIRL; INNER 5000 FT PORTION OF RY LGTD WITH WHITE LGTS; DSPLCD THLDS LGTD WITH BLUE LGTS; THLD LGTD WITH RED LGTS.
RUNWAY 18  RUNWAY 36
Traffic pattern: leftleft
Displaced threshold: 700 ft.700 ft.

Airport Ownership and Management from official FAA records

Ownership: Privately-owned
Owner: GEORGE HODGES, JR.
PO BOX 16771
JACKSONVILLE, FL 32245-6771
Phone 904-509-8501
Manager: JOHN R. CATHEY
P.O. BOX 17393
JACKSONVILLE, FL 32245-7393
Phone 904-223-0153

Airport Operational Statistics

Aircraft based on the field: 1
Jet airplanes: 1
    

Additional Remarks

FOR CD CTC JACKSONVILLE APCH AT 904-741-0284.

Instrument Procedures

There are no published instrument procedures at FD48.

Some nearby airports with instrument procedures:

KCRG - Jacksonville Executive Airport at Craig (7 nm NW)
KNRB - Mayport Naval Station (Adm David L. McDonald Field) (9 nm N)
KNIP - Jacksonville Naval Air Station (Towers Field) (12 nm W)
KSGJ - Northeast Florida Regional Airport (18 nm S)
KHEG - Herlong Recreational Airport (19 nm W)
KJAX - Jacksonville International Airport (20 nm NW)
 
Loc | Ops | Rwys | IFR | FBO | Links
Com | Nav | Svcs | Stats | Notes
Area around FD48 (Deep Forest Airport)
 
Road maps at: MapQuest Bing Google
 
Aerial photo
No photo
 
Sectional chart

 
Airport distance calculator
Flying to Deep Forest Airport? Find the distance to fly.

From to FD48

Sunrise and sunset
Times for 16-Oct-2019
 Local
(UTC-4)
 Zulu
(UTC)
Morning civil twilight07:0511:05
Sunrise07:3011:30
Sunset18:5322:53
Evening civil twilight19:1723:17

Current date and time
Zulu (UTC)  16-Oct-2019 05:41:25
Local (UTC-4)  16-Oct-2019 01:41:25
 
METAR
KCRG 
6nm NW 
160453Z AUTO 19008G16KT 10SM CLR 24/21 A2994 RMK AO2 SLP137 T02440211 402830228
KNRB 
9nm N 
160452Z AUTO 20011KT 10SM CLR 25/21 A2994 RMK AO2 SLP138 T02500206 402780239
KNIP 
11nm W 
160453Z 19012KT 10SM FEW015 BKN110 BKN200 25/20 A2994 RMK AO2 SLP134 T02500200 402940228
KSGJ 
18nm SE 
160456Z AUTO 20008KT 10SM CLR 24/21 A2996 RMK AO2 SLP145 T02440206 402830222 $
KHEG 
19nm W 
160455Z AUTO 16007KT 9SM FEW055 SCT070 BKN120 24/21 A2995 RMK AO2
KJAX 
20nm NW 
160456Z 18009KT 10SM FEW020 FEW100 BKN150 OVC250 24/21 A2992 RMK AO2 RAB04E13 SLP133 P0001 T02440211 402940228
TAF
KCRG 
6nm NW 
151739Z 1518/1618 09006KT P6SM SCT025 BKN050 FM160100 14007KT P6SM VCSH SCT020 BKN040 FM161200 26010KT P6SM VCSH SCT020 BKN040
KNRB 
9nm N 
1523/1623 12010KT 9999 FEW015 SCT120 BKN150 OVC250 QNH2995INS TEMPO 1523/1603 8000 -RA SCT010 BKN015 OVC050 FM160300 18010KT 9999 VCSH SCT020 BKN050 BKN100 OVC250 QNH2985INS FM161400 24015KT 9999 VCSH SCT025 BKN040 BKN150 QNH2980INS AUTOMATED SENSOR METWATCH 1604 TIL 1609 T24/1610Z T28/1618Z FN20023
KNIP 
11nm W 
1523/1623 15004KT 9999 VCSH SCT015 SCT060 BKN120 BKN200 641409 642305 QNH2992INS TEMPO 1523/1604 12012KT 4800 RA SCT008 BKN015 OVC040 FM160400 18007KT 9999 -RA SCT008 BKN030 BKN100 BKN200 641409 642305 QNH2986INS FM160800 21008KT 9000 -RA VCTS SCT008 BKN020CB BKN080 BKN200 641409 642305 QNH2982INS TEMPO 1608/1614 VRB15G30KT 4800 +TSRA BR SCT005 BKN015CB OVC060 FM161400 24011KT 9999 VCSH SCT020 BKN040 OVC100 611409 612305 QNH2978INS FM161800 27013G20KT 9999 VCSH SCT025 BKN060 BKN100 OVC200 611409
KSGJ 
18nm SE 
151739Z 1518/1618 09008KT P6SM SCT030 BKN120 FM160300 14009KT P6SM VCSH SCT030 BKN120 FM161200 24012KT P6SM VCSH SCT030 BKN120
KJAX 
20nm NW 
151134Z 1512/1612 VRB03KT P6SM VCSH BKN050 OVC120 TEMPO 1512/1516 6SM -SHRA BR SCT025 OVC050 FM151700 09006KT P6SM VCSH SCT025 BKN050 FM160000 14007KT P6SM VCSH SCT020 BKN040
NOTAMs
Click for the latest NOTAMs
NOTAMs are issued by the DoD/FAA and will open in a separate window not controlled by AirNav.

 

 
 

Would you like to see your business listed on this page?

 If your business provides an interesting product or service to pilots, flight crews, aircraft, or users of the Deep Forest Airport, you should consider listing it here.  To start the listing process, click on the button below
 
Add a business
 

Other Pages about Deep Forest Airport

Update a link
 
Copyright © AirNav, LLC. All rights reserved. Privacy Policy  Contact